Time;durP1;ratioP1;P1;durP2;ratioP2;P2;SDS_P1;SDS_P2;PMS_P1;PMS_P2;Temp;Humidity;BMP_temperature;BMP_pressure;BME280_temperature;BME280_humidity;BME280_pressure;Samples;Min_cycle;Max_cycle;Signal;HPM_P1;HPM_P2
2022/11/05 00:09:39;;;;;;;9.95;3.38;;;;;;;7.81;100.00;101569.44;5032462;28;20142;-64
2022/11/05 00:17:55;;;;;;;10.70;3.47;;;;;;;7.81;100.00;101582.56;4947056;29;20086;-66
2022/11/05 00:20:20;;;;;;;10.55;2.90;;;;;;;7.85;100.00;101586.88;4986489;28;20044;-64
2022/11/05 00:25:29;;;;;;;10.57;3.08;;;;;;;7.92;100.00;101590.31;5044046;28;20063;-66
2022/11/05 00:27:59;;;;;;;8.60;3.20;;;;;;;8.00;100.00;101592.88;5046456;28;20025;-66
2022/11/05 00:30:25;;;;;;;11.38;3.03;;;;;;;8.06;100.00;101604.16;5046806;28;20399;-65
2022/11/05 00:32:51;;;;;;;10.48;3.40;;;;;;;8.14;100.00;101595.31;5046572;28;20036;-66
2022/11/05 00:35:18;;;;;;;17.67;3.10;;;;;;;8.21;100.00;101600.50;5037973;28;20554;-65
2022/11/05 00:37:43;;;;;;;10.15;3.10;;;;;;;8.32;100.00;101600.38;5026532;28;20544;-66
2022/11/05 00:40:10;;;;;;;6.50;3.05;;;;;;;8.39;100.00;101610.78;5029071;28;20108;-65
2022/11/05 00:45:20;;;;;;;5.53;2.63;;;;;;;8.54;100.00;101608.00;5030637;28;20129;-66
2022/11/05 00:50:29;;;;;;;9.98;2.70;;;;;;;8.63;100.00;101604.38;5031170;28;20497;-65
2022/11/05 00:52:56;;;;;;;6.60;2.20;;;;;;;8.71;100.00;101606.91;5029938;28;20029;-65
2022/11/05 00:55:29;;;;;;;10.15;2.85;;;;;;;8.72;100.00;101608.63;5046276;28;20044;-66
2022/11/05 00:57:55;;;;;;;5.88;2.35;;;;;;;8.74;100.00;101609.50;5050292;28;20403;-65
2022/11/05 01:00:22;;;;;;;12.70;2.40;;;;;;;8.74;100.00;101616.50;5050093;28;20024;-66
2022/11/05 01:02:48;;;;;;;6.93;2.63;;;;;;;8.78;100.00;101619.06;5050279;28;20018;-66
2022/11/05 01:05:13;;;;;;;13.63;2.40;;;;;;;8.79;100.00;101620.78;5050657;28;20132;-65
2022/11/05 01:07:38;;;;;;;12.55;1.85;;;;;;;8.79;100.00;101618.16;5032070;28;20115;-65
2022/11/05 01:10:04;;;;;;;6.03;2.05;;;;;;;8.82;100.00;101620.75;5049162;28;20037;-65
2022/11/05 01:12:30;;;;;;;7.28;2.15;;;;;;;8.84;100.00;101618.97;5026908;28;20125;-65
2022/11/05 01:14:56;;;;;;;6.07;2.30;;;;;;;8.82;100.00;101623.38;5049131;28;20029;-65
2022/11/05 01:17:21;;;;;;;6.03;1.60;;;;;;;8.77;100.00;101619.97;5029307;28;20032;-66
2022/11/05 01:19:47;;;;;;;6.18;2.03;;;;;;;8.66;100.00;101629.72;5030049;28;20026;-65
2022/11/05 01:22:12;;;;;;;13.32;2.67;;;;;;;8.59;100.00;101621.97;5029519;28;20061;-65
2022/11/05 01:24:37;;;;;;;7.68;1.98;;;;;;;8.54;100.00;101625.50;5030063;28;20049;-65
2022/11/05 01:27:03;;;;;;;6.07;1.85;;;;;;;8.49;100.00;101627.31;5030077;28;20025;-65
2022/11/05 01:29:28;;;;;;;8.25;2.30;;;;;;;8.37;100.00;101634.44;5030239;28;20025;-65
2022/11/05 01:31:53;;;;;;;20.23;3.63;;;;;;;8.19;100.00;101638.16;5041375;28;20033;-65
2022/11/05 01:34:19;;;;;;;10.52;2.30;;;;;;;8.33;100.00;101637.97;5049878;28;20519;-66
2022/11/05 01:36:44;;;;;;;11.50;2.15;;;;;;;8.35;100.00;101636.22;5048329;28;20475;-66
2022/11/05 01:39:09;;;;;;;9.57;3.15;;;;;;;8.35;100.00;101628.34;5049810;28;20096;-65
2022/11/05 01:41:35;;;;;;;7.85;2.13;;;;;;;8.37;100.00;101629.16;5049554;28;20045;-67
2022/11/05 01:44:00;;;;;;;5.80;1.92;;;;;;;8.33;100.00;101636.22;5049716;28;20021;-66
2022/11/05 01:46:28;;;;;;;4.40;1.45;;;;;;;8.21;100.00;101628.50;5049937;28;20032;-66
2022/11/05 01:48:55;;;;;;;8.57;2.57;;;;;;;8.06;100.00;101632.16;5049761;28;20052;-64
2022/11/05 01:51:24;;;;;;;13.13;2.53;;;;;;;7.97;100.00;101614.75;5030325;28;20098;-67
2022/11/05 01:53:52;;;;;;;7.90;2.15;;;;;;;7.91;100.00;101609.56;5031580;28;20032;-65
2022/11/05 01:56:39;;;;;;;7.50;2.58;;;;;;;7.80;100.00;101615.78;5049000;28;20020;-65
2022/11/05 01:59:09;;;;;;;12.23;2.20;;;;;;;7.66;100.00;101615.06;5049509;28;20112;-65
2022/11/05 02:01:34;;;;;;;7.32;2.38;;;;;;;7.57;100.00;101619.50;5030857;28;20115;-66
2022/11/05 02:04:10;;;;;;;11.65;2.55;;;;;;;7.53;100.00;101614.31;5049619;28;20082;-65
2022/11/05 02:06:38;;;;;;;6.85;2.22;;;;;;;7.44;100.00;101616.09;5030756;28;20037;-65
2022/11/05 02:09:13;;;;;;;6.53;2.33;;;;;;;7.36;100.00;101617.03;5103278;22;20061;-67
2022/11/05 02:11:38;;;;;;;6.15;1.80;;;;;;;7.32;100.00;101624.94;5009974;28;20030;-66
2022/11/05 02:14:04;;;;;;;5.28;1.90;;;;;;;7.27;100.00;101628.47;5009995;28;20031;-65
2022/11/05 02:16:37;;;;;;;6.88;2.67;;;;;;;7.18;100.00;101630.28;5010240;28;20368;-64
2022/11/05 02:19:30;;;;;;;6.22;2.10;;;;;;;7.14;100.00;101625.97;4992403;28;20026;-67
2022/11/05 02:22:26;;;;;;;5.35;2.30;;;;;;;7.12;100.00;101630.34;4989621;28;20045;-68
2022/11/05 02:25:15;;;;;;;4.93;2.17;;;;;;;7.16;100.00;101637.28;4989085;28;20361;-68
2022/11/05 02:28:05;;;;;;;13.82;4.60;;;;;;;7.28;100.00;101631.09;4990086;28;20038;-66
2022/11/05 02:31:01;;;;;;;9.27;3.08;;;;;;;7.46;100.00;101626.56;5001812;28;20034;-67
2022/11/05 02:33:55;;;;;;;7.88;2.60;;;;;;;7.66;100.00;101636.91;4988796;28;20492;-67
2022/11/05 02:36:26;;;;;;;5.43;2.38;;;;;;;7.83;100.00;101628.88;4985898;28;20073;-64
2022/11/05 02:38:59;;;;;;;13.40;2.72;;;;;;;7.96;100.00;101632.28;5008791;28;20041;-65
2022/11/05 02:42:01;;;;;;;5.57;2.33;;;;;;;8.17;100.00;101629.41;5007946;28;20025;-66
2022/11/05 02:44:36;;;;;;;12.07;2.40;;;;;;;8.34;100.00;101635.34;4990688;28;20030;-66
2022/11/05 02:47:41;;;;;;;3.28;2.03;;;;;;;8.53;100.00;101629.88;5009120;28;20071;-67
2022/11/05 02:50:12;;;;;;;9.93;3.47;;;;;;;8.62;100.00;101623.66;5008482;28;20488;-65
2022/11/05 02:52:52;;;;;;;5.30;2.17;;;;;;;8.68;100.00;101633.22;5008004;28;20392;-65
2022/11/05 02:55:35;;;;;;;2.95;1.63;;;;;;;8.64;100.00;101632.38;5003620;28;20033;-66
2022/11/05 02:58:04;;;;;;;5.15;1.95;;;;;;;8.61;100.00;101637.66;4990638;28;20117;-66
2022/11/05 03:00:51;;;;;;;3.40;1.80;;;;;;;8.59;100.00;101632.47;5008606;28;20049;-65
2022/11/05 03:03:29;;;;;;;8.38;1.88;;;;;;;8.58;100.00;101628.06;5008066;28;20028;-67
2022/11/05 03:06:04;;;;;;;2.25;1.80;;;;;;;8.50;100.00;101635.16;4990340;28;20038;-66
2022/11/05 03:08:35;;;;;;;6.55;1.90;;;;;;;8.46;100.00;101638.72;5008266;28;20176;-65
2022/11/05 03:11:25;;;;;;;5.72;2.22;;;;;;;8.44;100.00;101636.13;5008415;28;20033;-67
2022/11/05 03:13:57;;;;;;;3.90;1.40;;;;;;;8.55;100.00;101648.28;5006607;28;20377;-66
2022/11/05 03:16:39;;;;;;;3.42;1.60;;;;;;;8.65;100.00;101647.28;5008063;28;20034;-66
2022/11/05 03:19:13;;;;;;;3.83;1.52;;;;;;;8.79;100.00;101649.69;4988171;28;20030;-67
2022/11/05 03:21:52;;;;;;;3.60;1.20;;;;;;;8.98;100.00;101654.72;5007661;28;20376;-67
2022/11/05 03:24:27;;;;;;;3.40;1.33;;;;;;;9.10;100.00;101645.78;4989775;28;20037;-66
2022/11/05 03:26:56;;;;;;;3.45;1.30;;;;;;;9.26;100.00;101650.81;4990066;28;20478;-67
2022/11/05 03:29:28;;;;;;;2.05;1.00;;;;;;;9.37;100.00;101648.00;4990741;28;20037;-66
2022/11/05 03:31:55;;;;;;;25.02;3.08;;;;;;;9.45;100.00;101644.38;4990447;28;20435;-67
2022/11/05 03:34:28;;;;;;;3.28;1.38;;;;;;;9.53;100.00;101638.09;4990763;28;20022;-66
2022/11/05 03:36:55;;;;;;;3.95;1.17;;;;;;;9.51;100.00;101640.75;4989768;28;20038;-65
2022/11/05 03:39:28;;;;;;;2.08;1.00;;;;;;;9.53;100.00;101636.34;4989680;28;20104;-65
2022/11/05 03:41:55;;;;;;;3.42;1.20;;;;;;;9.48;100.00;101622.38;4989931;28;20025;-65
2022/11/05 03:44:25;;;;;;;2.47;1.20;;;;;;;9.42;100.00;101625.16;4989747;28;20026;-66
2022/11/05 03:46:52;;;;;;;5.72;1.40;;;;;;;9.40;100.00;101611.13;4990215;28;20029;-68
2022/11/05 03:49:27;;;;;;;4.38;1.20;;;;;;;9.29;100.00;101611.31;4989949;28;20342;-67
2022/11/05 03:51:54;;;;;;;5.53;1.20;;;;;;;9.18;100.00;101619.38;4989466;28;20044;-66
2022/11/05 03:54:20;;;;;;;3.10;1.50;;;;;;;9.07;100.00;101620.41;4989635;28;20712;-65
2022/11/05 03:56:59;;;;;;;9.43;1.52;;;;;;;9.00;100.00;101624.00;4989972;28;20034;-66
2022/11/05 03:59:26;;;;;;;5.78;1.60;;;;;;;8.97;100.00;101630.19;5007698;28;20084;-68
2022/11/05 04:01:52;;;;;;;4.68;1.58;;;;;;;8.89;100.00;101618.91;4990537;28;20022;-67
2022/11/05 04:04:18;;;;;;;8.05;1.73;;;;;;;8.79;100.00;101626.06;4990007;28;20045;-67
2022/11/05 04:14:55;;;;;;;2.33;1.50;;;;;;;8.61;100.00;101629.78;5006772;28;20041;-68
2022/11/05 04:17:20;;;;;;;2.00;1.65;;;;;;;8.61;100.00;101626.31;5007583;28;20030;-68
2022/11/05 04:25:16;;;;;;;5.40;1.83;;;;;;;8.39;100.00;101632.66;5006863;28;20443;-68
2022/11/05 04:27:41;;;;;;;7.60;2.17;;;;;;;8.29;100.00;101644.16;5007282;28;20022;-69
2022/11/05 04:30:20;;;;;;;3.20;1.92;;;;;;;8.20;100.00;101638.13;5007170;28;20080;-66
2022/11/05 04:33:00;;;;;;;5.25;2.03;;;;;;;8.06;100.00;101638.28;5007402;28;20080;-68
2022/11/05 04:35:28;;;;;;;4.38;2.03;;;;;;;8.06;100.00;101640.91;5006551;28;20038;-67
2022/11/05 04:37:54;;;;;;;4.85;2.17;;;;;;;7.96;100.00;101642.75;5007184;28;20128;-66
2022/11/05 04:40:19;;;;;;;6.38;2.28;;;;;;;7.94;100.00;101643.63;5006152;28;20101;-68
2022/11/05 04:42:44;;;;;;;6.63;2.60;;;;;;;7.88;100.00;101649.81;5007000;28;20033;-69
2022/11/05 04:45:10;;;;;;;4.57;2.17;;;;;;;7.78;100.00;101640.31;5006544;28;20029;-68
2022/11/05 04:47:35;;;;;;;3.38;2.30;;;;;;;7.69;100.00;101643.88;5006709;28;20068;-67
2022/11/05 04:50:00;;;;;;;2.63;2.38;;;;;;;7.61;100.00;101643.09;5005769;28;20026;-67
2022/11/05 04:52:26;;;;;;;4.38;2.15;;;;;;;7.54;100.00;101643.13;5006065;28;20097;-67
2022/11/05 04:54:51;;;;;;;4.75;2.30;;;;;;;7.51;100.00;101648.41;5005648;28;20064;-69
2022/11/05 04:57:16;;;;;;;4.40;2.83;;;;;;;7.42;100.00;101649.34;5006094;28;20104;-67
2022/11/05 04:59:42;;;;;;;7.65;2.78;;;;;;;7.35;100.00;101652.91;5006370;28;20026;-67
2022/11/05 05:02:07;;;;;;;5.72;2.67;;;;;;;7.32;100.00;101647.69;5021746;28;20083;-68
2022/11/05 05:04:32;;;;;;;6.05;3.13;;;;;;;7.28;100.00;101649.44;5007120;28;20018;-66
2022/11/05 05:06:58;;;;;;;10.52;2.60;;;;;;;7.24;100.00;101645.09;5006159;28;20033;-66
2022/11/05 05:09:23;;;;;;;4.07;2.40;;;;;;;7.27;100.00;101644.22;5003388;28;20050;-68
2022/11/05 05:11:48;;;;;;;5.07;2.53;;;;;;;7.26;100.00;101640.72;5006730;28;20040;-69
2022/11/05 05:14:14;;;;;;;4.07;2.80;;;;;;;7.29;100.00;101645.06;5006161;28;20036;-66
2022/11/05 05:16:39;;;;;;;3.35;2.47;;;;;;;7.37;100.00;101637.16;5006199;28;20109;-68
2022/11/05 05:19:04;;;;;;;6.10;2.40;;;;;;;7.45;100.00;101648.44;5006191;28;20113;-67
2022/11/05 05:21:39;;;;;;;5.78;2.88;;;;;;;7.46;100.00;101645.81;5006103;28;20057;-67
2022/11/05 05:24:17;;;;;;;3.60;2.50;;;;;;;7.53;100.00;101645.78;5005761;28;20022;-67
2022/11/05 05:26:49;;;;;;;2.97;2.67;;;;;;;7.61;100.00;101653.59;5009630;28;20112;-67
2022/11/05 05:29:15;;;;;;;3.50;2.15;;;;;;;7.73;100.00;101653.47;4992376;28;20037;-67
2022/11/05 05:31:40;;;;;;;7.90;2.67;;;;;;;7.78;100.00;101645.53;5010486;28;20022;-66
2022/11/05 05:34:06;;;;;;;8.55;2.92;;;;;;;7.80;100.00;101647.25;5010123;28;20362;-67
2022/11/05 05:36:32;;;;;;;9.98;2.47;;;;;;;7.87;100.00;101652.47;5009740;28;20397;-69
2022/11/05 05:38:57;;;;;;;4.72;2.88;;;;;;;7.84;100.00;101645.50;5009500;28;20029;-66
2022/11/05 05:41:23;;;;;;;5.07;2.22;;;;;;;7.84;100.00;101651.63;5008764;28;20038;-68
2022/11/05 05:43:49;;;;;;;4.30;2.50;;;;;;;7.82;100.00;101645.50;5010580;28;20526;-68
2022/11/05 05:46:16;;;;;;;3.58;2.25;;;;;;;7.80;100.00;101651.66;4992246;28;20026;-67
2022/11/05 05:48:41;;;;;;;3.08;2.08;;;;;;;7.75;100.00;101653.44;5009867;28;20108;-67
2022/11/05 05:51:09;;;;;;;6.50;2.05;;;;;;;7.67;100.00;101658.75;5009019;28;20176;-68
2022/11/05 05:53:34;;;;;;;4.53;2.00;;;;;;;7.71;100.00;101661.34;5010491;28;20087;-67
2022/11/05 05:56:00;;;;;;;7.18;2.35;;;;;;;7.68;100.00;101663.13;5009592;28;20030;-67
2022/11/05 05:58:26;;;;;;;8.73;2.47;;;;;;;7.69;100.00;101660.50;5008812;28;20025;-67
2022/11/05 06:00:52;;;;;;;6.53;2.20;;;;;;;7.63;100.00;101660.56;5007978;28;20026;-68
2022/11/05 06:03:18;;;;;;;12.07;2.30;;;;;;;7.62;100.00;101658.81;5008469;28;20033;-68
2022/11/05 06:05:43;;;;;;;3.65;2.40;;;;;;;7.58;100.00;101665.81;5009325;28;20022;-67
2022/11/05 06:08:08;;;;;;;7.55;4.50;;;;;;;7.55;100.00;101675.47;5009501;28;20022;-67
2022/11/05 06:10:34;;;;;;;5.63;2.78;;;;;;;7.55;100.00;101671.09;4975994;28;20037;-67
2022/11/05 06:12:59;;;;;;;5.53;3.30;;;;;;;7.57;100.00;101669.34;5009565;28;20037;-68
2022/11/05 06:15:25;;;;;;;10.57;3.95;;;;;;;7.61;100.00;101680.66;5009675;28;20092;-68
2022/11/05 06:17:50;;;;;;;6.93;3.30;;;;;;;7.63;100.00;101681.53;5009506;28;20140;-67
2022/11/05 06:20:15;;;;;;;9.70;4.30;;;;;;;7.65;100.00;101681.53;5007407;28;20468;-69
2022/11/05 06:22:41;;;;;;;8.30;4.03;;;;;;;7.67;100.00;101684.97;5009955;28;20022;-69
2022/11/05 06:25:07;;;;;;;6.68;4.30;;;;;;;7.70;100.00;101675.34;5008630;28;20038;-69
2022/11/05 06:27:33;;;;;;;6.63;4.05;;;;;;;7.71;100.00;101676.22;5009865;28;20034;-68
2022/11/05 06:29:58;;;;;;;11.20;4.75;;;;;;;7.69;100.00;101683.22;5009413;28;20114;-68
2022/11/05 06:32:24;;;;;;;7.15;5.10;;;;;;;7.69;100.00;101688.47;5007875;28;20520;-68
2022/11/05 06:34:49;;;;;;;10.60;5.18;;;;;;;7.68;100.00;101684.13;5008910;28;20747;-69
2022/11/05 06:37:14;;;;;;;7.03;5.40;;;;;;;7.65;100.00;101686.78;5007297;28;20030;-66
2022/11/05 06:39:40;;;;;;;12.13;5.40;;;;;;;7.64;100.00;101682.38;5009391;28;20501;-68
2022/11/05 06:42:05;;;;;;;9.90;5.78;;;;;;;7.66;100.00;101685.88;5004534;28;20014;-69
2022/11/05 06:44:30;;;;;;;11.40;5.38;;;;;;;7.69;100.00;101689.34;4989800;28;20489;-67
2022/11/05 06:46:56;;;;;;;9.88;6.38;;;;;;;7.76;100.00;101679.66;4989500;28;20365;-65
2022/11/05 06:49:23;;;;;;;11.93;6.53;;;;;;;7.85;100.00;101676.09;4991053;28;20157;-68
2022/11/05 06:51:49;;;;;;;9.18;6.30;;;;;;;7.91;100.00;101683.91;5007676;28;20040;-67
2022/11/05 06:54:15;;;;;;;11.07;6.78;;;;;;;7.93;100.00;101686.53;5007360;28;20072;-68
2022/11/05 06:56:40;;;;;;;11.90;6.53;;;;;;;7.95;100.00;101685.63;5008999;28;20534;-68
2022/11/05 06:59:07;;;;;;;13.75;7.22;;;;;;;8.02;100.00;101691.69;5008236;28;20049;-68
2022/11/05 07:01:33;;;;;;;12.05;6.97;;;;;;;8.08;100.00;101689.03;5008925;28;20026;-66
2022/11/05 07:03:58;;;;;;;13.88;7.28;;;;;;;8.09;100.00;101690.75;5008245;28;20033;-68
2022/11/05 07:06:23;;;;;;;14.55;6.60;;;;;;;8.19;100.00;101699.38;5007840;28;20057;-67
2022/11/05 07:08:49;;;;;;;15.85;7.22;;;;;;;8.27;100.00;101701.94;5008659;28;20078;-68
2022/11/05 07:11:14;;;;;;;14.70;7.18;;;;;;;8.37;100.00;101704.47;5008108;28;20118;-67
2022/11/05 07:13:39;;;;;;;16.55;7.22;;;;;;;8.33;100.00;101709.75;5008224;28;20543;-69
2022/11/05 07:16:05;;;;;;;12.65;7.07;;;;;;;8.32;100.00;101708.03;5007511;28;20468;-70
2022/11/05 07:18:30;;;;;;;15.02;6.85;;;;;;;8.36;100.00;101697.50;5007920;28;20025;-68
2022/11/05 07:20:55;;;;;;;24.13;7.13;;;;;;;8.37;100.00;101701.84;5007216;28;20385;-66
2022/11/05 07:23:21;;;;;;;13.90;7.45;;;;;;;8.38;100.00;101709.72;4991248;28;20599;-69
2022/11/05 07:25:46;;;;;;;11.77;6.95;;;;;;;8.40;100.00;101704.44;5000960;28;20045;-68
2022/11/05 07:28:13;;;;;;;9.93;6.75;;;;;;;8.42;100.00;101702.66;4997523;28;20010;-68
2022/11/05 07:30:38;;;;;;;15.02;7.15;;;;;;;8.44;100.00;101704.41;5008617;28;20029;-69
2022/11/05 07:33:04;;;;;;;13.98;7.70;;;;;;;8.51;100.00;101709.56;5006858;28;20389;-69
2022/11/05 07:35:29;;;;;;;11.80;6.75;;;;;;;8.51;100.00;101705.19;5006882;28;20109;-69
2022/11/05 07:37:54;;;;;;;10.40;6.93;;;;;;;8.55;100.00;101706.91;4999286;28;20366;-68
2022/11/05 07:40:21;;;;;;;13.52;7.60;;;;;;;8.61;100.00;101710.38;4999421;28;20488;-67
2022/11/05 07:42:49;;;;;;;11.80;7.03;;;;;;;8.65;100.00;101707.69;4998784;28;20121;-68
2022/11/05 07:45:15;;;;;;;15.90;7.47;;;;;;;8.73;100.00;101715.47;5005823;28;20022;-70
2022/11/05 07:47:51;;;;;;;16.40;7.82;;;;;;;8.72;100.00;101705.84;5007508;28;20101;-69
2022/11/05 07:50:18;;;;;;;13.48;7.22;;;;;;;8.77;100.00;101711.06;4988398;28;20023;-68
2022/11/05 07:52:44;;;;;;;12.00;6.97;;;;;;;8.87;100.00;101707.44;5006127;28;20364;-64
2022/11/05 07:55:10;;;;;;;14.57;7.15;;;;;;;8.98;100.00;101704.66;4988354;28;20034;-67
2022/11/05 07:57:42;;;;;;;21.67;7.32;;;;;;;9.15;100.00;101711.47;4986321;28;20105;-69
2022/11/05 08:00:13;;;;;;;14.63;6.93;;;;;;;9.30;100.00;101713.00;4986459;28;20449;-65
2022/11/05 08:02:39;;;;;;;11.23;6.40;;;;;;;9.50;100.00;101704.81;4995216;28;20024;-68
2022/11/05 08:05:04;;;;;;;13.38;5.82;;;;;;;9.61;100.00;101710.75;4995029;28;20121;-70
2022/11/05 08:07:30;;;;;;;12.93;5.97;;;;;;;9.71;100.00;101713.25;4996810;28;20073;-68
2022/11/05 08:09:55;;;;;;;7.90;5.55;;;;;;;9.77;100.00;101715.78;4980429;28;20502;-64
2022/11/05 08:12:20;;;;;;;9.00;5.65;;;;;;;9.85;100.00;101716.50;4978278;28;20092;-70
2022/11/05 08:14:46;;;;;;;6.60;5.05;;;;;;;9.92;100.00;101713.78;4975917;28;20031;-68
2022/11/05 08:17:11;;;;;;;11.38;5.28;;;;;;;9.94;100.00;101709.38;4976899;28;20041;-70
2022/11/05 08:19:36;;;;;;;8.00;4.72;;;;;;;9.95;100.00;101719.88;4958875;28;20019;-71
2022/11/05 08:22:02;;;;;;;8.10;5.40;;;;;;;10.05;100.00;101719.72;4971274;28;20117;-66
2022/11/05 08:24:27;;;;;;;10.60;5.22;;;;;;;10.11;100.00;101716.94;4977995;28;20109;-69
2022/11/05 08:26:52;;;;;;;11.05;4.55;;;;;;;10.17;100.00;101719.47;4975687;28;20041;-70
2022/11/05 08:29:18;;;;;;;9.32;4.78;;;;;;;10.17;100.00;101714.22;4957932;28;20049;-67
2022/11/05 08:31:43;;;;;;;7.38;4.82;;;;;;;10.17;100.00;101714.22;4978019;28;20475;-67
2022/11/05 08:34:08;;;;;;;8.10;5.03;;;;;;;10.22;100.00;101716.78;4975050;28;20019;-65
2022/11/05 08:36:34;;;;;;;9.32;4.50;;;;;;;10.26;100.00;101713.19;4976726;28;20030;-65
2022/11/05 08:39:00;;;;;;;14.43;5.40;;;;;;;10.35;100.00;101712.13;4975473;28;20078;-64
2022/11/05 08:41:25;;;;;;;11.82;4.95;;;;;;;10.42;100.00;101712.91;4972575;28;20074;-63
2022/11/05 08:43:53;;;;;;;8.77;4.50;;;;;;;10.43;100.00;101717.25;4954248;28;20080;-63
2022/11/05 08:46:19;;;;;;;8.32;4.18;;;;;;;10.57;100.00;101720.53;4972369;28;20077;-63
2022/11/05 08:48:44;;;;;;;10.57;4.28;;;;;;;10.63;100.00;101718.69;4979688;28;20026;-66
2022/11/05 08:51:09;;;;;;;11.18;4.22;;;;;;;10.72;100.00;101718.50;4973680;28;20078;-67
2022/11/05 08:53:35;;;;;;;7.78;3.92;;;;;;;10.76;100.00;101728.06;4977499;28;20100;-73
2022/11/05 08:56:00;;;;;;;15.77;4.53;;;;;;;10.79;100.00;101730.66;4976429;28;20055;-70
2022/11/05 08:58:25;;;;;;;9.20;3.78;;;;;;;10.92;100.00;101730.38;4976970;28;20068;-71
2022/11/05 09:00:51;;;;;;;11.40;4.03;;;;;;;10.97;100.00;101725.88;4976683;28;20120;-72
2022/11/05 09:03:17;;;;;;;8.38;3.63;;;;;;;11.07;100.00;101735.34;4983959;28;20029;-74
2022/11/05 09:05:42;;;;;;;11.25;4.18;;;;;;;11.25;100.00;101730.56;4961737;28;20669;-67
2022/11/05 09:08:12;;;;;;;7.93;3.50;;;;;;;11.46;100.00;101731.84;4981904;28;20033;-70
2022/11/05 09:10:39;;;;;;;6.63;3.08;;;;;;;11.57;100.00;101723.69;4999625;28;20053;-68
2022/11/05 09:13:05;;;;;;;7.30;3.22;;;;;;;11.63;100.00;101734.06;4999955;28;20495;-67
2022/11/05 09:15:30;;;;;;;8.05;3.33;;;;;;;11.56;100.00;101719.28;4994749;28;20071;-72
2022/11/05 09:17:56;;;;;;;12.52;3.22;;;;;;;11.67;100.00;101726.94;4972712;28;20511;-69
2022/11/05 09:20:22;;;;;;;8.40;3.13;;;;;;;11.85;100.00;101728.28;4998300;28;20033;-71
2022/11/05 09:22:47;;;;;;;8.13;3.20;;;;;;;11.90;100.00;101724.63;5009833;28;20105;-71
2022/11/05 09:25:14;;;;;;;9.60;3.20;;;;;;;11.72;100.00;101725.09;5010162;28;20393;-70
2022/11/05 09:27:40;;;;;;;5.60;2.75;;;;;;;11.98;100.00;101725.34;5010398;28;20018;-72
2022/11/05 09:30:05;;;;;;;3.58;2.42;;;;;;;11.95;100.00;101718.34;5010017;28;20041;-67
2022/11/05 09:32:31;;;;;;;10.30;3.17;;;;;;;11.98;100.00;101720.06;5009855;28;20095;-71
2022/11/05 09:34:59;;;;;;;6.20;2.72;;;;;;;12.01;100.00;101731.38;5009606;28;20096;-71
2022/11/05 09:37:24;;;;;;;7.32;2.70;;;;;;;12.21;100.00;101731.81;5008873;28;20076;-67
2022/11/05 09:39:49;;;;;;;7.70;2.90;;;;;;;12.19;100.00;101731.84;5008178;28;20029;-67
2022/11/05 09:42:16;;;;;;;3.60;2.33;;;;;;;12.31;100.00;101728.00;5008773;28;20121;-67
2022/11/05 09:44:46;;;;;;;8.23;2.78;;;;;;;12.48;100.00;101729.31;5008854;28;20061;-69
2022/11/05 09:47:16;;;;;;;7.00;3.00;;;;;;;12.49;100.00;101729.28;4991822;28;20022;-69
2022/11/05 09:49:45;;;;;;;8.00;2.88;;;;;;;12.54;100.00;101734.44;4991544;28;20072;-69
2022/11/05 09:52:14;;;;;;;7.25;2.70;;;;;;;12.50;100.00;101740.72;5009750;28;20396;-71
2022/11/05 09:54:40;;;;;;;3.78;2.33;;;;;;;12.31;100.00;101737.72;5009480;28;20109;-69
2022/11/05 09:57:07;;;;;;;5.90;2.33;;;;;;;12.43;100.00;101732.09;4975088;28;20133;-68
2022/11/05 09:59:38;;;;;;;5.18;2.65;;;;;;;12.35;100.00;101737.59;5008583;28;20030;-69
2022/11/05 10:02:18;;;;;;;7.05;2.53;;;;;;;12.49;100.00;101733.69;4991500;28;20060;-68
2022/11/05 10:04:46;;;;;;;8.32;2.10;;;;;;;12.57;99.79;101730.84;4990773;28;20396;-69
2022/11/05 10:07:15;;;;;;;4.35;1.88;;;;;;;12.56;98.83;101737.94;5008429;28;20396;-69
2022/11/05 10:09:46;;;;;;;4.93;1.67;;;;;;;12.68;98.36;101735.84;5007369;28;20096;-70
2022/11/05 10:12:24;;;;;;;5.55;2.17;;;;;;;12.64;98.12;101727.09;5007330;28;20080;-70
2022/11/05 10:15:12;;;;;;;4.30;2.00;;;;;;;12.80;96.98;101730.19;5008201;28;20061;-68
2022/11/05 10:17:41;;;;;;;6.20;2.35;;;;;;;12.64;96.88;101730.63;4989639;28;20030;-71
2022/11/05 10:20:30;;;;;;;6.13;2.30;;;;;;;12.71;96.26;101727.81;4990143;28;20030;-69
2022/11/05 10:22:58;;;;;;;6.35;2.35;;;;;;;12.60;97.15;101731.63;4990850;28;20022;-71
2022/11/05 10:25:28;;;;;;;6.40;2.30;;;;;;;12.71;97.23;101747.19;4991041;28;20030;-67
2022/11/05 10:27:54;;;;;;;8.30;2.30;;;;;;;12.75;97.02;101737.38;5006301;28;20025;-70
2022/11/05 10:30:20;;;;;;;3.90;2.10;;;;;;;12.62;97.55;101731.59;4991573;28;20036;-69
2022/11/05 10:32:46;;;;;;;5.10;2.60;;;;;;;12.69;96.70;101738.44;4999087;28;20034;-69
2022/11/05 10:35:17;;;;;;;6.70;2.28;;;;;;;12.64;97.82;101735.03;4984029;28;20136;-68
2022/11/05 10:37:44;;;;;;;8.00;2.53;;;;;;;12.73;96.44;101740.06;5008461;28;20672;-69
2022/11/05 10:40:30;;;;;;;6.43;2.55;;;;;;;12.57;97.25;101741.41;5008683;28;20037;-68
2022/11/05 10:43:07;;;;;;;5.18;2.40;;;;;;;12.80;96.48;101740.78;4990222;28;20044;-68
2022/11/05 10:45:42;;;;;;;6.60;2.47;;;;;;;12.63;96.67;101738.59;5004737;28;20065;-67
2022/11/05 10:48:19;;;;;;;4.50;2.20;;;;;;;12.68;97.75;101741.13;4982612;28;20045;-68
2022/11/05 10:50:44;;;;;;;5.70;2.20;;;;;;;12.81;96.81;101734.56;5007936;28;20109;-66
2022/11/05 10:53:16;;;;;;;7.03;2.20;;;;;;;12.95;96.52;101738.59;4989901;28;20108;-68
2022/11/05 10:55:43;;;;;;;4.28;2.05;;;;;;;13.10;95.52;101732.81;5007811;28;20400;-71
2022/11/05 10:58:16;;;;;;;4.95;2.25;;;;;;;12.76;95.81;101739.09;4990486;28;20108;-67
2022/11/05 11:00:52;;;;;;;7.32;2.53;;;;;;;12.81;97.24;101737.22;5005585;28;20033;-68
2022/11/05 11:03:41;;;;;;;7.03;2.95;;;;;;;12.67;95.90;101744.69;5005914;28;20334;-67
2022/11/05 11:06:17;;;;;;;5.20;2.50;;;;;;;12.98;94.29;101743.78;5005475;28;20049;-66
2022/11/05 11:08:44;;;;;;;5.05;2.38;;;;;;;13.01;94.13;101739.25;5007827;28;20674;-69
2022/11/05 11:11:11;;;;;;;5.75;2.10;;;;;;;13.21;93.49;101739.56;4989929;28;20076;-69
2022/11/05 11:13:57;;;;;;;5.82;2.17;;;;;;;13.30;93.83;101739.28;5007079;28;20025;-68
2022/11/05 11:16:25;;;;;;;6.88;2.58;;;;;;;13.66;92.81;101740.00;5007177;28;20038;-69
2022/11/05 11:18:59;;;;;;;8.73;2.33;;;;;;;13.64;90.59;101734.75;4989851;28;20171;-72
2022/11/05 11:21:26;;;;;;;9.55;2.10;;;;;;;13.73;90.06;101738.88;5003438;28;20388;-70
2022/11/05 11:24:01;;;;;;;6.63;2.08;;;;;;;13.63;90.20;101743.59;4990301;28;20030;-67
2022/11/05 11:26:36;;;;;;;4.55;2.20;;;;;;;13.49;90.81;101741.38;4988243;28;20499;-72
2022/11/05 11:29:14;;;;;;;3.67;1.70;;;;;;;13.54;91.32;101733.31;4970837;28;20030;-64
2022/11/05 11:31:39;;;;;;;5.68;2.67;;;;;;;13.72;91.38;101734.47;4984346;28;20048;-70
2022/11/05 11:34:11;;;;;;;8.75;2.63;;;;;;;13.94;91.04;101733.78;4990613;28;20053;-71
2022/11/05 11:36:47;;;;;;;5.28;2.20;;;;;;;14.27;89.87;101726.44;4990674;28;20030;-71
2022/11/05 11:39:15;;;;;;;6.50;2.00;;;;;;;14.30;88.62;101727.25;4989914;28;20065;-69
2022/11/05 11:41:42;;;;;;;5.75;2.10;;;;;;;14.12;89.79;101732.28;4991653;28;20021;-73
2022/11/05 11:44:22;;;;;;;9.40;1.98;;;;;;;14.20;88.22;101747.91;4990441;28;20025;-71
2022/11/05 11:46:49;;;;;;;4.45;2.10;;;;;;;14.08;86.77;101743.88;5008314;28;20453;-68
2022/11/05 11:49:36;;;;;;;4.07;1.73;;;;;;;14.14;87.47;101728.66;4989986;28;20021;-63
2022/11/05 11:52:07;;;;;;;6.47;1.70;;;;;;;14.07;88.09;101736.88;4994107;28;20433;-69
2022/11/05 11:54:34;;;;;;;5.50;1.73;;;;;;;13.99;88.19;101731.81;4986001;28;20029;-69
2022/11/05 11:57:02;;;;;;;7.22;1.80;;;;;;;14.17;89.09;101716.22;5005146;28;20477;-74
2022/11/05 11:59:29;;;;;;;4.82;1.67;;;;;;;14.56;85.22;101728.97;4993163;28;20075;-74
2022/11/05 12:02:40;;;;;;;4.38;1.50;;;;;;;14.37;86.01;101721.69;4971508;28;20105;-70
2022/11/05 12:05:25;;;;;;;4.35;1.60;;;;;;;14.46;85.78;101723.13;4962374;28;20038;-75
2022/11/05 12:08:09;;;;;;;3.95;1.63;;;;;;;14.50;86.87;101727.41;4970848;28;20068;-72